• Join FlightAware (Why Join?)
  • Login
  • US Flag 
03:16AM EDT


 

Airport Tracker/Info


-or-


 

Live Flight TrackerFlight Track Log ✈ SAS617 ✈ 31-Oct-2013 ✈ EKCH / CPH - LSGG / GVA

Flight Track Log - Related Links

Times and Time Zones

All times are in EDT time to prevent confusion due to time zone crossing. See the SAS617 flight status page for this flight to view local times or setup timezone preferences in your user account.

Time Position Orientation Groundspeed Altitude Reporting Facility
EDT Latitude Longitude Course Direction KTS MPH feet Rate Location/Type
12:29PM 55.5988 12.6136 209° Southwest 142 163 700  Level FlightAware ADS-B (ESMN)
12:29PM 55.5884 12.5975 221° Southwest 160 184 1,600 2,100 Climbing FlightAware ADS-B (ESMN)
12:30PM 55.5780 12.5820 220° Southwest 187 215 2,000 1,620 Climbing FlightAware ADS-B (ESMN)
12:30PM 55.5635 12.5608 220° Southwest 221 254 2,600 1,800 Climbing FlightAware ADS-B (ESMN)
12:30PM 55.5505 12.5430 218° Southwest 246 283 3,100 2,280 Climbing FlightAware ADS-B (ESMN)
12:31PM 55.5297 12.5165 216° Southwest 266 306 4,000 3,000 Climbing FlightAware ADS-B (ESMN)
12:31PM 55.5119 12.4944 215° Southwest 274 315 5,000 3,480 Climbing FlightAware ADS-B (ESMN)
12:31PM 55.4945 12.4725 215° Southwest 280 322 6,000 3,240 Climbing FlightAware ADS-B (ESMN)
12:32PM 55.4577 12.4253 216° Southwest 298 343 7,800 3,060 Climbing FlightAware ADS-B (ESMN)
12:32PM 55.4108 12.3648 216° Southwest 314 361 10,000 3,180 Climbing FlightAware ADS-B (ESMN)
12:33PM 55.3740 12.3178 216° Southwest 321 369 11,700 3,300 Climbing FlightAware ADS-B (ESMN)
12:34PM 55.3331 12.2658 216° Southwest 324 373 13,500 3,000 Climbing FlightAware ADS-B (ESMN)
12:34PM 55.2961 12.2189 216° Southwest 335 386 14,800 2,580 Climbing FlightAware ADS-B (ESMN)
12:35PM 55.2518 12.1628 216° Southwest 347 399 16,400 2,520 Climbing FlightAware ADS-B (ESMN)
12:35PM 55.2109 12.1114 216° Southwest 355 409 17,600 2,640 Climbing FlightAware ADS-B (ESMN)
12:36PM 55.1711 12.0615 216° Southwest 354 407 19,100 2,580 Climbing FlightAware ADS-B (ESMN)
12:37PM 55.0965 11.9673 216° Southwest 362 417 21,300 2,220 Climbing FlightAware ADS-B (ESMN)
12:37PM 55.0553 11.9154 216° Southwest 369 425 22,300 2,040 Climbing FlightAware ADS-B (ESMN)
12:38PM 55.0130 11.8627 216° Southwest 371 427 23,500 1,740 Climbing FlightAware ADS-B (ESMN)
12:38PM 54.9660 11.8045 215° Southwest 381 438 24,200 1,560 Climbing FlightAware ADS-B (ESMN)
12:39PM 54.9018 11.7254 215° Southwest 384 442 25,500 1,680 Climbing FlightAware ADS-B (ESMN)
12:39PM 54.8562 11.6696 215° Southwest 388 447 26,400 1,440 Climbing FlightAware ADS-B (ESMN)
12:40PM 54.7897 11.5880 215° Southwest 399 459 27,300 1,260 Climbing FlightAware ADS-B (ESMN)
12:41PM 54.7479 11.5311 218° Southwest 402 463 28,000 1,200 Climbing FlightAware ADS-B (ESMN)
12:41PM 54.6843 11.4389 220° Southwest 412 474 28,800 1,260 Climbing FlightAware ADS-B (ESMN)
12:42PM 54.6382 11.3745 219° Southwest 413 475 29,600 1,560 Climbing FlightAware ADS-B (ESMN)
12:43PM 54.5629 11.2709 219° Southwest 409 471 31,000 1,560 Climbing FlightAware ADS-B (ESMN)
12:43PM 54.5163 11.2071 218° Southwest 408 470 31,800 1,440 Climbing FlightAware ADS-B (ESMN)
12:44PM 54.4737 11.1490 218° Southwest 406 467 32,500 1,440 Climbing FlightAware ADS-B (ESMN)
12:44PM 54.4164 11.0708 218° Southwest 401 461 33,500 1,560 Climbing FlightAware ADS-B (ESMN)
12:45PM 54.3617 10.9967 218° Southwest 396 456 34,600 1,560 Climbing FlightAware ADS-B (ESMN)
12:46PM 54.3144 10.9329 218° Southwest 390 449 35,400 1,320 Climbing FlightAware ADS-B (ESMN)
12:46PM 54.2791 10.8850 218° Southwest 387 445 36,000 960 Climbing FlightAware ADS-B (ESMN)
12:47PM 54.1834 10.7563 218° Southwest 383 441 37,000 540 Climbing FlightAware ADS-B (ESMN)
12:48PM 54.1283 10.6824 218° Southwest 382 440 37,000  Level FlightAware ADS-B (ESMN)
12:48PM 54.0782 10.6157 218° Southwest 386 444 37,000  Level FlightAware ADS-B (ESMN)
12:49PM 54.0219 10.5410 218° Southwest 388 447 37,000  Level FlightAware ADS-B (ESMN)
12:50PM 53.9843 10.4911 218° Southwest 388 447 37,000  Level FlightAware ADS-B (ESMN)
12:50PM 53.9120 10.3960 218° Southwest 388 447 37,000  Level FlightAware
12:51PM 53.9018 10.3816 220° Southwest 389 448 37,000  Level FlightAware ADS-B (ESMN)
12:51PM 53.8330 10.2910 218° Southwest 389 448 37,000  Level FlightAware
12:52PM 53.7980 10.2460 217° Southwest 389 448 37,000  Level FlightAware
12:52PM 53.7380 10.1670 218° Southwest 390 449 37,000  Level FlightAware
12:53PM 53.6760 10.0860 218° Southwest 391 450 37,000  Level FlightAware
12:54PM 53.6250 10.0200 218° Southwest 392 451 37,000  Level FlightAware
12:55PM 53.5278 9.8945 218° Southwest 393 452 37,000  Level FlightAware ADS-B
12:55PM 53.4790 9.8319 217° Southwest 395 455 37,000  Level FlightAware ADS-B
12:56PM 53.4030 9.7350 217° Southwest 395 455 37,000  Level FlightAware
12:57PM 53.3044 9.6088 217° Southwest 395 455 37,000  Level FlightAware ADS-B (EDLW / DTM)
12:58PM 53.2581 9.5503 217° Southwest 394 453 37,000  Level FlightAware ADS-B (EDLW / DTM)
12:59PM 53.2006 9.4776 217° Southwest 397 457 37,000  Level FlightAware ADS-B (EDLW / DTM)
01:00PM 53.0883 9.3364 217° Southwest 398 458 37,000  Level FlightAware ADS-B (EDLW / DTM)
01:01PM 53.0147 9.2445 217° Southwest 401 461 37,000  Level FlightAware ADS-B (EDLW / DTM)
01:01PM 52.9629 9.1799 217° Southwest 403 464 37,000  Level FlightAware ADS-B (EDLW / DTM)
01:02PM 52.9045 9.1073 217° Southwest 402 463 37,000  Level FlightAware ADS-B (EDLW / DTM)
01:03PM 52.7730 8.9447 217° Southwest 404 465 37,000  Level FlightAware ADS-B (EDLW / DTM)
01:04PM 52.7101 8.8678 217° Southwest 404 465 37,000  Level FlightAware ADS-B (EDLW / DTM)
01:05PM 52.6625 8.8093 217° Southwest 404 465 37,000  Level FlightAware ADS-B (EDLW / DTM)
01:05PM 52.6030 8.7364 217° Southwest 405 466 37,000  Level FlightAware ADS-B (EDLW / DTM)
01:06PM 52.5469 8.6681 217° Southwest 406 467 37,000  Level FlightAware ADS-B (EDLW / DTM)
01:06PM 52.5058 8.6185 216° Southwest 406 467 37,000  Level FlightAware ADS-B (EDLW / DTM)
01:07PM 52.4385 8.5372 216° Southwest 406 467 37,000  Level FlightAware ADS-B (EDLW / DTM)
01:08PM 52.3863 8.4739 217° Southwest 408 470 37,000  Level FlightAware ADS-B (EDLW / DTM)
01:08PM 52.3425 8.4212 216° Southwest 411 473 37,000  Level FlightAware ADS-B (EDLW / DTM)
01:09PM 52.2920 8.3609 216° Southwest 409 471 37,000  Level FlightAware ADS-B (EDLW / DTM)
01:09PM 52.2440 8.3037 216° Southwest 409 471 37,000  Level FlightAware ADS-B (EDLW / DTM)
01:10PM 52.2014 8.2529 216° Southwest 409 471 37,000  Level FlightAware ADS-B (EDLW / DTM)
01:10PM 52.1507 8.1926 216° Southwest 409 471 37,000  Level FlightAware ADS-B (EDLW / DTM)
01:11PM 52.0996 8.1319 216° Southwest 406 467 37,000  Level FlightAware ADS-B (EDLW / DTM)
01:11PM 52.0410 8.0628 216° Southwest 409 471 37,000  Level FlightAware ADS-B (EDLW / DTM)
01:12PM 51.9948 8.0082 216° Southwest 408 470 37,000  Level FlightAware ADS-B (EDLW / DTM)
01:12PM 51.9479 7.9532 216° Southwest 407 468 37,000  Level FlightAware ADS-B (EDLW / DTM)
01:13PM 51.9014 7.8989 216° Southwest 409 471 37,000  Level FlightAware ADS-B (EDLW / DTM)
01:14PM 51.8399 7.8268 216° Southwest 411 473 37,000  Level FlightAware ADS-B (EDLW / DTM)
01:14PM 51.7902 7.7689 216° Southwest 411 473 37,000  Level FlightAware ADS-B (EDLW / DTM)
01:15PM 51.7462 7.7180 216° Southwest 411 473 37,000  Level FlightAware ADS-B (EDLW / DTM)
01:15PM 51.6905 7.6534 216° Southwest 411 473 37,000  Level FlightAware ADS-B (EDLW / DTM)
01:16PM 51.6450 7.6006 216° Southwest 411 473 37,000  Level FlightAware ADS-B (EDLW / DTM)
01:16PM 51.5962 7.5446 216° Southwest 413 475 37,000  Level FlightAware ADS-B (EDLW / DTM)
01:17PM 51.5471 7.4881 216° Southwest 412 474 37,000  Level FlightAware ADS-B (EDLW / DTM)
01:17PM 51.5020 7.4365 215° Southwest 412 474 37,000  Level FlightAware ADS-B (EDLW / DTM)
01:18PM 51.4560 7.3840 215° Southwest 410 472 37,000  Level FlightAware
01:19PM 51.3519 7.2654 215° Southwest 411 473 37,000  Level FlightAware ADS-B (EDKL)
01:19PM 51.3062 7.2137 215° Southwest 410 472 37,000  Level FlightAware ADS-B (EDKL)
01:20PM 51.2620 7.1636 215° Southwest 412 474 37,000  Level FlightAware ADS-B (EDKL)
01:20PM 51.2121 7.1072 215° Southwest 412 474 37,000  Level FlightAware ADS-B (EDKL)
01:21PM 51.1669 7.0564 215° Southwest 413 475 37,000  Level FlightAware ADS-B (EDKL)
01:21PM 51.1176 7.0010 215° Southwest 416 479 37,000  Level FlightAware ADS-B (EDKL)
01:22PM 51.0749 6.9530 215° Southwest 420 483 37,000  Level FlightAware ADS-B (EDKL)
01:23PM 51.0082 6.8794 215° Southwest 427 491 37,000  Level FlightAware ADS-B (EDKL)
01:23PM 50.9517 6.8456 201° Southwest 445 512 37,000  Level FlightAware ADS-B (EDKL)
01:24PM 50.8790 6.8140 195° South 446 513 37,000  Level FlightAware ADS-B (EDKL)
01:24PM 50.8023 6.7797 196° South 447 514 37,000  Level FlightAware ADS-B (EDKL)
01:25PM 50.7312 6.7483 196° South 448 516 37,000  Level FlightAware ADS-B (EDKL)
01:26PM 50.5996 6.7357 183° South 467 537 37,000  Level FlightAware ADS-B (EDKL)
01:27PM 50.4084 6.7327 181° South 474 545 37,000  Level FlightAware ADS-B (EDKL)
01:28PM 50.3060 6.7314 180° South 473 544 37,000  Level FlightAware ADS-B (EDLW / DTM)
01:30PM 50.1190 6.7290 180° South 475 547 37,000  Level FlightAware
01:30PM 50.0650 6.7280 181° South 474 545 37,000  Level FlightAware
01:31PM 49.9860 6.7270 180° South 475 547 37,000 -120 Level FlightAware
01:31PM 49.9050 6.7260 180° South 473 544 36,900 -540 Descending FlightAware
01:32PM 49.8330 6.7260 180° South 458 527 36,400 -1,020 Descending FlightAware
01:33PM 49.7460 6.7250 180° South 451 519 35,700 -960 Descending FlightAware
01:34PM 49.6050 6.7210 181° South 446 513 34,700 -960 Descending FlightAware
01:34PM 49.5170 6.7170 182° South 449 517 34,000 -960 Descending FlightAware
01:35PM 49.4360 6.7140 181° South 448 516 33,400 -840 Descending FlightAware
01:36PM 49.3590 6.7120 181° South 450 518 33,000 -360 Descending FlightAware
01:36PM 49.2920 6.7100 181° South 453 521 33,000  Level FlightAware
01:37PM 49.2010 6.7070 181° South 454 522 33,000  Level FlightAware
01:38PM 49.0620 6.7020 181° South 456 525 33,000  Level FlightAware
01:39PM 48.9880 6.7000 181° South 457 526 33,000  Level FlightAware
01:39PM 48.8990 6.6980 181° South 458 527 33,000  Level FlightAware
01:40PM 48.8210 6.6950 181° South 458 527 33,000  Level FlightAware
01:41PM 48.7280 6.6920 181° South 460 529 33,000  Level FlightAware
01:41PM 48.6390 6.6900 181° South 462 532 33,000  Level FlightAware
01:42PM 48.5320 6.6860 181° South 464 534 33,000  Level FlightAware
01:43PM 48.4740 6.6850 181° South 465 535 33,000  Level FlightAware
01:43PM 48.3860 6.6820 181° South 466 536 33,000  Level FlightAware
01:44PM 48.3200 6.6800 181° South 466 536 33,000  Level FlightAware
01:44PM 48.2410 6.6780 181° South 465 535 33,000  Level FlightAware
01:45PM 48.1430 6.6750 181° South 464 534 33,000  Level FlightAware
01:46PM 48.0760 6.6730 181° South 464 534 33,000  Level FlightAware
01:46PM 48.0010 6.6710 181° South 465 535 33,000  Level FlightAware
01:47PM 47.9240 6.6680 181° South 466 536 33,000  Level FlightAware
01:48PM 47.8270 6.6650 181° South 468 539 33,000 -240 Level FlightAware
01:48PM 47.7570 6.6630 181° South 469 540 32,700 -1,620 Descending FlightAware
01:49PM 47.6720 6.6620 180° South 470 541 31,100 -2,160 Descending FlightAware
01:50PM 47.5020 6.6560 181° South 439 505 28,500 -1,980 Descending FlightAware
01:51PM 47.4260 6.6530 182° South 423 487 27,300 -1,860 Descending FlightAware
01:51PM 47.3540 6.6510 181° South 412 474 26,100 -2,100 Descending FlightAware
01:52PM 47.2400 6.6470 181° South 398 458 23,800 -1,860 Descending FlightAware
01:53PM 47.1780 6.6010 207° Southwest 384 442 23,000 -1,320 Descending FlightAware
01:54PM 47.1180 6.5400 215° Southwest 382 440 22,000 -1,920 Descending FlightAware
01:54PM 47.0530 6.5280 187° South 380 437 20,600 -2,220 Descending FlightAware
01:55PM 47.0000 6.5210 185° South 373 429 19,600 -1,980 Descending FlightAware
01:55PM 46.9450 6.5130 186° South 365 420 18,600 -2,460 Descending FlightAware
01:56PM 46.8870 6.5050 185° South 360 414 16,900 -4,260 Descending FlightAware
01:57PM 46.8320 6.4980 185° South 372 428 13,800 -5,520 Descending FlightAware
01:57PM 46.7720 6.4890 186° South 371 427 10,800 -4,320 Descending FlightAware
01:58PM 46.7180 6.4670 196° South 333 383 8,900 -2,520 Descending FlightAware
01:58PM 46.6790 6.4480 198° South 290 334 8,200 -780 Descending FlightAware
01:59PM 46.6310 6.4240 199° South 253 291 8,000 -780 Descending FlightAware
02:00PM 46.5920 6.4050 199° South 247 284 7,200 -1,140 Descending FlightAware
02:00PM 46.5550 6.3890 197° South 247 284 6,700 -480 Descending FlightAware
02:01PM 46.5030 6.3640 198° South 249 287 6,600 -360 Descending FlightAware
02:02PM 46.4620 6.3450 198° South 232 267 6,200 -840 Descending FlightAware
02:02PM 46.4320 6.3310 198° South 224 258 5,700 -1,140 Descending FlightAware
02:03PM 46.3910 6.3110 199° South 218 251 4,900 -1,140 Descending FlightAware
02:03PM 46.3640 6.2930 205° Southwest 215 247 4,300 -1,260 Descending FlightAware
02:04PM 46.3410 6.2600 225° Southwest 201 231 3,600 -1,140 Descending FlightAware
02:04PM 46.3250 6.2370 225° Southwest 179 206 3,200 -900 Descending FlightAware
02:05PM 46.3070 6.2100 226° Southwest 156 180 2,700 -960 Descending FlightAware
02:05PM 46.2910 6.1870 225° Southwest 148 170 2,200 -780 Descending FlightAware
02:06PM 46.2740 6.1620 225° Southwest 134 154 1,800 -780 Descending FlightAware
02:06PM 46.2630 6.1450 227° Southwest 137 158 1,400 -660 Descending FlightAware
02:07PM 46.2440 6.1180 225° Southwest 131 151 1,100 -480 Descending FlightAware